Time;durP1;ratioP1;P1;durP2;ratioP2;P2;SDS_P1;SDS_P2;PMS_P1;PMS_P2;Temp;Humidity;BMP_temperature;BMP_pressure;BME280_temperature;BME280_humidity;BME280_pressure;Samples;Min_cycle;Max_cycle;Signal;HPM_P1;HPM_P2
2022/11/20 00:01:20;;;;;;;8.48;5.93;;;4.90;99.90;;;4.12;100.00;96729.38;5053930;28;20496;-40
2022/11/20 00:03:47;;;;;;;7.45;5.80;;;4.90;99.90;;;4.15;100.00;96731.94;5056401;28;20040;-41
2022/11/20 00:06:17;;;;;;;10.10;5.90;;;4.90;99.90;;;4.17;100.00;96731.00;5041429;28;20162;-41
2022/11/20 00:08:43;;;;;;;7.57;5.80;;;4.90;99.90;;;4.19;100.00;96733.56;5054977;28;20621;-42
2022/11/20 00:11:19;;;;;;;8.35;5.78;;;4.90;99.90;;;4.20;100.00;96732.69;5053050;28;20028;-41
2022/11/20 00:13:48;;;;;;;6.75;4.80;;;5.00;99.90;;;4.24;100.00;96738.72;5047706;28;20031;-41
2022/11/20 00:16:17;;;;;;;7.25;5.15;;;5.00;99.90;;;4.28;100.00;96733.38;5062163;28;20039;-40
2022/11/20 00:18:44;;;;;;;7.10;5.03;;;5.00;99.90;;;4.31;100.00;96738.53;5059517;28;20028;-40
2022/11/20 00:21:18;;;;;;;6.32;4.45;;;5.10;99.90;;;4.21;100.00;96711.75;5050146;28;20033;-41
2022/11/20 00:23:44;;;;;;;7.70;4.20;;;5.10;99.90;;;4.33;100.00;96735.88;5055906;28;20060;-41
2022/11/20 00:26:14;;;;;;;6.57;4.13;;;5.10;99.90;;;4.33;100.00;96736.72;5045323;28;20037;-41
2022/11/20 00:28:41;;;;;;;5.18;4.13;;;5.10;99.90;;;4.32;100.00;96735.00;5059664;28;20547;-41
2022/11/20 00:31:14;;;;;;;5.95;3.97;;;5.10;99.90;;;4.34;100.00;96732.34;5046450;28;20052;-40
2022/11/20 00:33:40;;;;;;;6.20;4.35;;;5.10;99.90;;;4.36;100.00;96735.78;5042519;28;20083;-42
2022/11/20 00:36:13;;;;;;;5.38;3.60;;;5.10;99.90;;;4.37;100.00;96732.31;5042403;28;20036;-39
2022/11/20 00:38:39;;;;;;;6.00;3.63;;;5.10;99.90;;;4.36;100.00;96734.06;5044124;28;20032;-40
2022/11/20 00:41:08;;;;;;;4.88;3.75;;;5.10;99.90;;;4.39;100.00;96733.97;5053892;28;20297;-39
2022/11/20 00:43:34;;;;;;;7.20;4.05;;;5.10;99.90;;;4.39;100.00;96726.13;5052704;28;20428;-40
2022/11/20 00:46:08;;;;;;;4.93;3.67;;;5.10;99.90;;;4.39;100.00;96733.97;5044281;28;20054;-40
2022/11/20 00:48:34;;;;;;;4.25;3.10;;;5.20;99.90;;;4.40;100.00;96729.63;5041484;28;20036;-40
2022/11/20 00:51:00;;;;;;;5.80;3.67;;;5.20;99.90;;;4.40;100.00;96734.84;5039128;28;20056;-39
2022/11/20 00:53:26;;;;;;;5.90;2.92;;;5.10;99.90;;;4.39;100.00;96736.56;5039699;28;20036;-40
2022/11/20 00:56:05;;;;;;;4.60;3.30;;;5.20;99.90;;;4.39;100.00;96733.97;5036968;28;20268;-40
2022/11/20 00:58:37;;;;;;;4.15;2.83;;;5.20;99.90;;;4.39;100.00;96733.13;5048156;28;20119;-40
2022/11/20 01:01:13;;;;;;;5.03;2.80;;;5.20;99.90;;;4.40;100.00;96734.84;5035952;28;20120;-41
2022/11/20 01:03:42;;;;;;;5.82;3.00;;;5.10;99.90;;;4.35;100.00;96734.09;5051540;28;20040;-40
2022/11/20 01:06:12;;;;;;;3.05;2.47;;;5.10;99.90;;;4.33;100.00;96735.88;5035829;28;20454;-39
2022/11/20 01:08:39;;;;;;;4.07;2.70;;;5.10;99.90;;;4.29;100.00;96729.00;5034433;28;20492;-39
2022/11/20 01:11:23;;;;;;;3.63;2.45;;;5.10;99.90;;;4.18;100.00;96726.63;5038237;28;20489;-39
2022/11/20 01:13:51;;;;;;;3.90;2.70;;;5.00;99.90;;;4.21;100.00;96729.19;5035943;28;20128;-39
2022/11/20 01:16:50;;;;;;;7.07;3.00;;;5.00;99.90;;;4.13;100.00;96736.34;5032865;28;20061;-40
2022/11/20 01:19:19;;;;;;;3.58;2.60;;;5.00;99.90;;;4.10;100.00;96746.81;5034662;28;20526;-39
2022/11/20 01:21:49;;;;;;;6.05;2.95;;;4.90;99.90;;;4.06;100.00;96740.81;5034992;28;20045;-40
2022/11/20 01:24:17;;;;;;;3.85;2.78;;;4.90;99.90;;;4.01;100.00;96735.69;5048026;28;20075;-40
2022/11/20 01:26:45;;;;;;;4.03;2.90;;;4.90;99.90;;;3.97;100.00;96736.66;5047001;28;20036;-40
2022/11/20 01:29:15;;;;;;;3.35;2.58;;;4.80;99.90;;;3.99;100.00;96749.66;5048449;28;20083;-40
2022/11/20 01:31:42;;;;;;;4.72;2.90;;;4.80;99.90;;;3.96;100.00;96753.19;5051681;28;20120;-39
2022/11/20 01:34:25;;;;;;;3.67;2.65;;;4.80;99.90;;;3.92;100.00;96754.16;5041383;28;20067;-39
2022/11/20 01:36:52;;;;;;;3.85;2.63;;;4.70;99.90;;;3.91;100.00;96748.97;5052038;28;20052;-41
2022/11/20 01:39:24;;;;;;;3.90;2.55;;;4.70;99.90;;;3.87;100.00;96757.75;5039418;28;21555;-40
2022/11/20 01:44:56;;;;;;;3.60;2.67;;;4.70;99.90;;;3.83;100.00;96752.59;5050606;28;20063;-39
2022/11/20 01:47:44;;;;;;;4.80;2.90;;;4.60;99.90;;;3.86;100.00;96753.41;5047143;28;20099;-40
2022/11/20 01:50:36;;;;;;;4.47;2.95;;;4.70;99.90;;;3.85;100.00;96754.31;5051165;28;20237;-39
2022/11/20 01:53:07;;;;;;;5.20;3.08;;;4.70;99.90;;;3.87;100.00;96757.75;5044540;28;20036;-39
2022/11/20 01:55:39;;;;;;;4.40;3.07;;;4.70;99.90;;;3.88;100.00;96749.03;5041259;28;20040;-39
2022/11/20 01:58:05;;;;;;;4.10;2.43;;;4.70;99.90;;;3.85;100.00;96742.13;5050390;28;20588;-39
2022/11/20 02:00:32;;;;;;;3.30;2.50;;;4.70;99.90;;;3.90;100.00;96747.25;5051312;28;20025;-39
2022/11/20 02:03:01;;;;;;;4.22;2.95;;;4.70;99.90;;;3.89;100.00;96751.59;5053866;28;20559;-39
2022/11/20 02:05:45;;;;;;;5.38;3.00;;;4.70;99.90;;;3.89;100.00;96754.19;5050799;28;20036;-40
2022/11/20 02:08:11;;;;;;;4.85;2.75;;;4.70;99.90;;;3.83;100.00;96747.38;5054689;28;20133;-39
2022/11/20 02:10:37;;;;;;;3.15;2.30;;;4.70;99.90;;;3.88;100.00;96759.47;5041179;28;20025;-39
2022/11/20 02:15:48;;;;;;;3.88;2.70;;;4.60;99.90;;;3.86;100.00;96758.63;5047107;28;20360;-39
2022/11/20 02:18:17;;;;;;;4.63;2.50;;;4.70;99.90;;;3.84;100.00;96758.69;5046189;28;20404;-39
2022/11/20 02:20:45;;;;;;;4.75;2.67;;;4.60;99.90;;;3.81;100.00;96751.75;5052723;28;20027;-38
2022/11/20 02:23:22;;;;;;;3.75;2.50;;;4.60;99.90;;;3.79;100.00;96752.69;5052880;28;20606;-39
2022/11/20 02:25:50;;;;;;;4.50;2.33;;;4.60;99.90;;;3.75;100.00;96756.22;5047484;28;20519;-39
2022/11/20 02:28:17;;;;;;;4.68;2.30;;;4.50;99.90;;;3.67;100.00;96764.22;5057001;28;20555;-39
2022/11/20 02:30:43;;;;;;;3.13;2.20;;;4.50;99.90;;;3.63;100.00;96766.03;5057231;28;20711;-39
2022/11/20 02:33:08;;;;;;;5.20;2.67;;;4.40;99.90;;;3.58;100.00;96761.78;5057842;28;20533;-39
2022/11/20 02:35:34;;;;;;;4.68;2.28;;;4.40;99.90;;;3.62;100.00;96769.53;5059365;28;20041;-39
2022/11/20 02:38:02;;;;;;;3.40;2.28;;;4.40;99.90;;;3.67;100.00;96758.16;5063030;28;20040;-40
2022/11/20 02:40:28;;;;;;;3.53;2.40;;;4.40;99.90;;;3.68;100.00;96763.34;5053054;28;20130;-39
2022/11/20 02:42:56;;;;;;;3.05;2.40;;;4.40;99.90;;;3.75;100.00;96756.22;5054610;28;20033;-40
2022/11/20 02:45:23;;;;;;;3.25;2.10;;;4.50;99.90;;;3.81;100.00;96756.13;5054236;28;20415;-39
2022/11/20 02:47:50;;;;;;;3.25;2.20;;;4.60;99.90;;;3.88;100.00;96755.09;5055630;28;20052;-39
2022/11/20 02:50:15;;;;;;;3.53;2.65;;;4.70;99.90;;;3.93;100.00;96752.38;5060084;28;20393;-41
2022/11/20 02:52:42;;;;;;;3.67;2.50;;;4.70;99.90;;;4.01;100.00;96756.56;5059033;28;20043;-40
2022/11/20 02:55:08;;;;;;;4.55;2.60;;;4.80;99.90;;;4.04;100.00;96752.16;5058795;28;20024;-39
2022/11/20 02:57:34;;;;;;;3.78;2.17;;;4.90;99.90;;;4.10;100.00;96759.88;5054990;28;20437;-40
2022/11/20 02:59:59;;;;;;;4.65;2.45;;;4.90;99.90;;;4.11;100.00;96757.25;5056478;28;20027;-39
2022/11/20 03:02:25;;;;;;;2.53;1.88;;;4.90;99.90;;;4.15;100.00;96755.41;5046070;28;21132;-39
2022/11/20 03:04:51;;;;;;;2.85;2.13;;;4.90;99.90;;;4.16;100.00;96763.22;5052722;28;20035;-40
2022/11/20 03:07:16;;;;;;;4.93;2.28;;;4.90;99.90;;;4.20;100.00;96759.63;5057741;28;20066;-39
2022/11/20 03:09:42;;;;;;;3.80;2.20;;;5.00;99.90;;;4.20;100.00;96762.25;5059140;28;20080;-41
2022/11/20 03:12:08;;;;;;;3.80;2.17;;;5.00;99.90;;;4.20;100.00;96764.00;5055213;28;20348;-41
2022/11/20 03:14:34;;;;;;;4.05;2.22;;;5.00;99.90;;;4.24;100.00;96765.66;5052588;28;20440;-39
2022/11/20 03:17:00;;;;;;;3.25;2.45;;;5.00;99.90;;;4.23;100.00;96760.47;5056707;28;20044;-40
2022/11/20 03:19:25;;;;;;;2.85;2.20;;;5.00;99.90;;;4.24;100.00;96751.75;5059199;28;20045;-40
2022/11/20 03:21:51;;;;;;;3.30;2.50;;;5.00;99.90;;;4.02;100.00;96715.69;5047307;28;20039;-40
2022/11/20 03:24:17;;;;;;;4.07;2.35;;;5.00;99.90;;;4.19;100.00;96757.06;5049797;28;20044;-40
2022/11/20 03:26:43;;;;;;;3.08;2.20;;;5.00;99.90;;;4.16;100.00;96754.50;5057005;28;20533;-40
2022/11/20 03:29:08;;;;;;;5.65;2.72;;;4.90;99.90;;;4.06;100.00;96747.78;5054709;28;20028;-39
2022/11/20 03:31:40;;;;;;;3.65;2.10;;;4.90;99.90;;;3.78;100.00;96712.69;5055179;28;20594;-40
2022/11/20 03:34:08;;;;;;;4.23;2.77;;;4.80;99.90;;;3.80;100.00;96726.59;5047950;28;20093;-39
2022/11/20 03:36:34;;;;;;;3.05;2.25;;;4.60;99.90;;;3.81;100.00;96732.66;5058601;28;20033;-39
2022/11/20 03:38:59;;;;;;;4.28;2.45;;;4.60;99.90;;;3.72;100.00;96727.63;5046704;28;20544;-40
2022/11/20 03:41:30;;;;;;;2.67;2.30;;;4.50;99.90;;;3.73;100.00;96734.53;5057402;28;20031;-40
2022/11/20 03:43:59;;;;;;;3.53;2.55;;;4.50;99.90;;;3.69;100.00;96733.75;5055061;28;20033;-40
2022/11/20 03:46:25;;;;;;;5.13;2.47;;;4.50;99.90;;;3.68;100.00;96734.66;5065870;22;20156;-60
2022/11/20 03:48:51;;;;;;;2.80;2.40;;;4.50;99.90;;;3.67;100.00;96732.06;5048000;28;20104;-60
2022/11/20 03:51:22;;;;;;;3.83;2.70;;;4.40;99.90;;;3.63;100.00;96732.13;5051318;28;20029;-60
2022/11/20 03:53:50;;;;;;;4.03;2.88;;;4.40;99.90;;;3.59;100.00;96734.84;5044706;28;20108;-60
2022/11/20 03:56:18;;;;;;;4.18;2.85;;;4.40;99.90;;;3.53;100.00;96733.19;5037174;28;20112;-60
2022/11/20 03:58:45;;;;;;;3.33;2.70;;;4.30;99.90;;;3.49;100.00;96734.16;5031894;28;20056;-59
2022/11/20 04:01:17;;;;;;;6.03;3.00;;;4.30;99.90;;;3.45;100.00;96737.72;5024067;28;20128;-59
2022/11/20 04:03:44;;;;;;;4.35;2.70;;;4.20;99.90;;;3.40;100.00;96743.00;5028181;28;20029;-59
2022/11/20 04:06:28;;;;;;;5.30;2.75;;;4.20;99.90;;;3.37;100.00;96737.00;5029855;28;20036;-60
2022/11/20 04:08:56;;;;;;;4.00;2.55;;;4.20;99.90;;;3.34;100.00;96731.81;5027885;28;20036;-60
2022/11/20 04:11:25;;;;;;;3.15;2.60;;;4.10;99.90;;;3.35;100.00;96731.81;5024030;28;20029;-60
2022/11/20 04:13:59;;;;;;;3.85;2.97;;;4.10;99.90;;;3.35;100.00;96734.41;5027846;28;20035;-60
2022/11/20 04:16:29;;;;;;;5.63;2.92;;;4.10;99.90;;;3.37;100.00;96731.78;5026403;28;20416;-60
2022/11/20 04:18:58;;;;;;;4.30;3.20;;;4.10;99.90;;;3.36;100.00;96730.09;5026356;28;20037;-59
2022/11/20 04:21:24;;;;;;;3.63;2.92;;;4.20;99.90;;;3.37;100.00;96726.56;5025108;28;20037;-60
2022/11/20 04:23:52;;;;;;;3.78;2.75;;;4.20;99.90;;;3.41;100.00;96733.44;5024823;28;20505;-60
2022/11/20 04:26:19;;;;;;;5.90;3.55;;;4.20;99.90;;;3.42;100.00;96727.34;5030607;28;20044;-60
2022/11/20 04:28:45;;;;;;;4.70;3.70;;;4.30;99.90;;;3.37;100.00;96721.34;5028806;28;20021;-60
2022/11/20 04:31:14;;;;;;;4.65;3.10;;;4.20;99.90;;;3.42;100.00;96727.34;5023762;28;20511;-60
2022/11/20 04:33:40;;;;;;;4.85;3.28;;;4.30;99.90;;;3.47;100.00;96727.28;5027261;28;20026;-60
2022/11/20 04:36:16;;;;;;;4.13;3.10;;;4.30;99.90;;;3.48;100.00;96724.59;5029036;28;20029;-60
2022/11/20 04:38:43;;;;;;;4.40;3.25;;;4.30;99.90;;;3.49;100.00;96728.09;5030331;28;20029;-60
2022/11/20 04:41:16;;;;;;;4.63;3.20;;;4.30;99.90;;;3.50;100.00;96728.06;5023582;28;21383;-60
2022/11/20 04:43:41;;;;;;;4.97;3.30;;;4.30;99.90;;;3.56;100.00;96720.09;5026572;28;20029;-60
2022/11/20 04:46:07;;;;;;;4.28;3.30;;;4.40;99.90;;;3.51;100.00;96706.31;5029815;28;20282;-60
2022/11/20 04:48:34;;;;;;;3.75;3.00;;;4.40;99.90;;;3.62;100.00;96714.78;5030048;28;20110;-60
2022/11/20 04:51:04;;;;;;;3.75;3.17;;;4.40;99.90;;;3.65;100.00;96718.22;5026912;28;20029;-60
2022/11/20 04:53:29;;;;;;;5.43;2.97;;;4.40;99.90;;;3.67;100.00;96726.88;5030766;28;20036;-60
2022/11/20 04:56:03;;;;;;;3.83;3.08;;;4.50;99.90;;;3.68;100.00;96720.75;5026721;28;20075;-60
2022/11/20 04:58:29;;;;;;;4.20;3.17;;;4.50;99.90;;;3.71;100.00;96712.88;5029827;28;20618;-60
2022/11/20 05:01:12;;;;;;;4.30;3.03;;;4.50;99.90;;;3.75;100.00;96717.13;5028984;28;20041;-60
2022/11/20 05:03:38;;;;;;;3.85;2.97;;;4.60;99.90;;;3.79;100.00;96713.56;5025761;28;20049;-60
2022/11/20 05:06:07;;;;;;;5.05;2.72;;;4.60;99.90;;;3.85;100.00;96717.78;5027709;28;20029;-60
2022/11/20 05:08:34;;;;;;;5.70;2.60;;;4.70;99.90;;;3.86;100.00;96712.56;5026009;28;20037;-60
2022/11/20 05:11:12;;;;;;;3.28;2.78;;;4.70;99.90;;;3.95;100.00;96728.00;5026682;28;20037;-60
2022/11/20 05:13:38;;;;;;;4.50;2.75;;;4.70;99.90;;;3.98;100.00;96720.13;5025985;28;20033;-60
2022/11/20 05:16:10;;;;;;;4.68;2.58;;;4.80;99.90;;;4.04;100.00;96713.91;5023949;28;20123;-60
2022/11/20 05:18:36;;;;;;;4.30;2.95;;;4.90;99.90;;;4.10;100.00;96718.13;5024475;28;20033;-60
2022/11/20 05:21:03;;;;;;;4.65;3.03;;;4.90;99.90;;;4.13;100.00;96718.06;5028230;28;20209;-60
2022/11/20 05:23:31;;;;;;;3.95;2.47;;;4.90;99.90;;;4.14;100.00;96714.53;5026622;28;20040;-60
2022/11/20 05:25:58;;;;;;;4.45;2.67;;;4.90;99.90;;;4.17;100.00;96715.34;5030415;28;20105;-60
2022/11/20 05:28:24;;;;;;;4.18;2.55;;;5.00;99.90;;;4.16;100.00;96718.84;5026262;28;20032;-60
2022/11/20 05:30:50;;;;;;;3.40;2.65;;;5.00;99.90;;;4.16;100.00;96718.84;5025847;28;20770;-60
2022/11/20 05:33:16;;;;;;;2.67;2.40;;;5.00;99.90;;;4.17;100.00;96720.56;5028450;28;20025;-60
2022/11/20 05:35:42;;;;;;;4.45;2.50;;;5.00;99.90;;;4.17;100.00;96719.69;5030059;28;20025;-60
2022/11/20 05:38:08;;;;;;;3.28;2.40;;;5.00;99.90;;;4.16;100.00;96724.06;5030819;28;20099;-60
2022/11/20 05:40:34;;;;;;;5.05;2.65;;;5.00;99.90;;;4.17;100.00;96724.94;5029096;28;20033;-60
2022/11/20 05:43:00;;;;;;;4.95;2.67;;;4.90;99.90;;;4.18;100.00;96721.41;5025806;28;20307;-60
2022/11/20 05:45:26;;;;;;;3.47;2.47;;;5.00;99.90;;;4.19;100.00;96720.53;5041650;28;20971;-60
2022/11/20 05:47:52;;;;;;;4.85;2.70;;;5.00;99.90;;;4.20;100.00;96717.88;5026914;28;20063;-60
2022/11/20 05:50:18;;;;;;;4.63;2.50;;;5.00;99.90;;;4.21;100.00;96721.34;5029393;28;20083;-60
2022/11/20 05:52:43;;;;;;;4.03;2.50;;;5.00;99.90;;;4.20;100.00;96717.88;5026552;28;20178;-60
2022/11/20 05:55:09;;;;;;;4.03;2.05;;;5.00;99.90;;;4.23;100.00;96719.56;5022635;28;20136;-60
2022/11/20 05:57:35;;;;;;;4.07;2.70;;;5.00;99.90;;;4.24;100.00;96726.50;5027973;28;20102;-60
2022/11/20 06:00:01;;;;;;;2.72;2.28;;;5.10;99.90;;;4.30;100.00;96728.09;5025596;28;20903;-60
2022/11/20 06:02:27;;;;;;;2.35;1.85;;;5.10;99.90;;;4.33;100.00;96722.81;5027908;28;20128;-60
2022/11/20 06:04:53;;;;;;;3.92;2.20;;;5.10;99.90;;;4.36;100.00;96722.72;5025510;28;20106;-60
2022/11/20 06:07:18;;;;;;;4.07;2.45;;;5.10;99.90;;;4.35;100.00;96721.88;5026156;28;20282;-60
2022/11/20 06:09:44;;;;;;;3.10;2.47;;;5.10;99.90;;;4.37;100.00;96727.94;5030421;28;20501;-60
2022/11/20 06:12:10;;;;;;;6.15;2.22;;;5.10;99.90;;;4.32;100.00;96719.34;5025441;28;20025;-60
2022/11/20 06:14:36;;;;;;;3.20;2.15;;;5.20;99.90;;;4.37;100.00;96720.09;5024795;28;20067;-60
2022/11/20 06:17:02;;;;;;;3.38;2.17;;;5.20;99.90;;;4.40;100.00;96727.88;5026075;28;20392;-60
2022/11/20 06:19:27;;;;;;;3.03;1.95;;;5.20;99.90;;;4.42;100.00;96722.59;5026937;28;20098;-60
2022/11/20 06:21:53;;;;;;;2.83;2.10;;;5.20;99.90;;;4.45;100.00;96721.66;5022699;28;20488;-60
2022/11/20 06:24:19;;;;;;;4.07;2.47;;;5.20;99.90;;;4.44;100.00;96714.75;5028230;28;20446;-60
2022/11/20 06:26:45;;;;;;;3.25;2.10;;;5.20;99.90;;;4.41;100.00;96718.28;5024519;28;20121;-60
2022/11/20 06:29:11;;;;;;;4.45;2.28;;;5.20;99.90;;;4.26;100.00;96698.59;5025139;28;20057;-60
2022/11/20 06:31:37;;;;;;;2.42;2.08;;;5.20;99.90;;;4.36;100.00;96705.34;5028711;28;20040;-59
2022/11/20 06:34:05;;;;;;;4.45;2.38;;;5.10;99.90;;;4.32;100.00;96714.13;5028736;28;20115;-59
2022/11/20 06:36:32;;;;;;;4.55;2.33;;;5.10;99.90;;;4.33;100.00;96712.38;5029308;28;20029;-60
2022/11/20 06:38:57;;;;;;;3.03;2.13;;;5.10;99.90;;;4.30;100.00;96708.06;5030260;28;20060;-60
2022/11/20 06:41:23;;;;;;;2.50;2.00;;;5.10;99.90;;;4.28;100.00;96699.44;5026315;28;20293;-60
2022/11/20 06:43:49;;;;;;;2.70;2.00;;;5.10;99.90;;;4.32;100.00;96708.91;5024434;28;20041;-60
2022/11/20 06:46:17;;;;;;;2.55;1.95;;;5.10;99.90;;;4.31;100.00;96711.56;5025369;28;20029;-60
2022/11/20 06:48:43;;;;;;;3.65;2.00;;;5.10;99.90;;;4.27;100.00;96704.69;5026265;28;20033;-59
2022/11/20 06:51:09;;;;;;;4.20;2.00;;;5.10;99.90;;;4.28;100.00;96711.63;5026826;28;20025;-60
2022/11/20 06:53:36;;;;;;;3.17;2.10;;;5.10;99.90;;;4.24;100.00;96713.44;5026733;28;20021;-60
2022/11/20 06:56:02;;;;;;;4.28;2.08;;;5.00;99.90;;;4.22;100.00;96715.25;5026380;28;20524;-59
2022/11/20 06:58:30;;;;;;;3.60;1.65;;;5.00;99.90;;;4.23;100.00;96718.69;5022282;28;20033;-60
2022/11/20 07:01:01;;;;;;;4.60;1.92;;;5.00;99.90;;;4.21;100.00;96718.72;5019317;28;20033;-60
2022/11/20 07:03:27;;;;;;;2.28;1.60;;;5.00;99.90;;;4.19;100.00;96720.53;5028226;28;20037;-60
2022/11/20 07:05:57;;;;;;;1.98;1.65;;;5.00;99.90;;;4.19;100.00;96728.34;5025253;28;20044;-60
2022/11/20 07:08:24;;;;;;;3.35;1.80;;;5.00;99.90;;;4.20;100.00;96724.88;5031669;28;20048;-60
2022/11/20 07:10:50;;;;;;;2.67;1.95;;;5.00;99.90;;;4.17;100.00;96719.69;5025341;28;20317;-59
2022/11/20 07:13:16;;;;;;;3.67;1.77;;;5.00;99.90;;;4.25;100.00;96724.75;5031134;28;20362;-60
2022/11/20 07:15:41;;;;;;;3.78;2.33;;;5.10;99.90;;;4.27;100.00;96729.06;5026032;28;20037;-59
2022/11/20 07:18:07;;;;;;;2.45;1.73;;;5.10;99.90;;;4.32;100.00;96732.38;5030869;28;20519;-60
2022/11/20 07:20:33;;;;;;;2.30;1.55;;;5.10;99.90;;;4.36;100.00;96730.56;5034673;28;20052;-60
2022/11/20 07:22:58;;;;;;;2.40;1.77;;;5.10;99.90;;;4.28;100.00;96714.25;5030574;28;20032;-60
2022/11/20 07:25:27;;;;;;;3.55;1.75;;;5.10;99.90;;;4.38;100.00;96731.41;5035113;28;20098;-60
2022/11/20 07:27:59;;;;;;;2.30;1.67;;;5.10;99.90;;;4.33;100.00;96718.47;5030231;28;20060;-60
2022/11/20 07:30:25;;;;;;;2.92;1.80;;;5.10;99.90;;;4.38;100.00;96727.03;5028177;28;20460;-59
2022/11/20 07:32:52;;;;;;;2.10;1.60;;;5.10;99.90;;;4.37;100.00;96730.53;5030441;28;20114;-60
2022/11/20 07:35:18;;;;;;;2.65;1.73;;;5.10;99.90;;;4.35;100.00;96737.53;5032569;28;20029;-60
2022/11/20 07:37:45;;;;;;;3.72;1.55;;;5.10;99.90;;;4.40;100.00;96742.69;5031076;28;20560;-60
2022/11/20 07:40:15;;;;;;;3.50;1.92;;;5.10;99.90;;;4.37;100.00;96732.31;5030751;28;20052;-59
2022/11/20 07:42:54;;;;;;;2.80;2.20;;;5.20;99.90;;;4.45;100.00;96743.44;5031282;28;20029;-60
2022/11/20 07:45:23;;;;;;;4.75;1.80;;;5.30;99.90;;;4.58;100.00;96736.16;5033301;28;20559;-59
2022/11/20 07:47:50;;;;;;;2.35;1.60;;;5.40;99.90;;;4.73;100.00;96738.38;5033343;28;21142;-60
2022/11/20 07:50:16;;;;;;;3.95;1.67;;;5.50;99.90;;;4.89;100.00;96738.88;5035048;28;20119;-60
2022/11/20 07:52:42;;;;;;;4.90;1.60;;;5.60;99.90;;;4.92;100.00;96733.59;5027682;28;20037;-60
2022/11/20 07:55:09;;;;;;;5.30;1.95;;;5.70;99.90;;;5.04;100.00;96742.00;5027885;28;20064;-60
2022/11/20 07:57:35;;;;;;;1.50;1.40;;;5.80;99.90;;;5.07;100.00;96752.38;5032364;28;20040;-60
2022/11/20 08:00:02;;;;;;;2.33;1.35;;;5.80;99.90;;;5.07;100.00;96752.38;5030289;28;20032;-60
2022/11/20 08:02:27;;;;;;;3.40;1.45;;;5.80;99.90;;;5.03;100.00;96746.38;5030112;28;20456;-60
2022/11/20 08:04:53;;;;;;;2.80;1.70;;;5.90;99.90;;;5.10;100.00;96757.53;5033124;28;20029;-60
2022/11/20 08:07:19;;;;;;;3.28;1.80;;;5.90;99.90;;;5.19;100.00;96756.41;5032849;28;20032;-60
2022/11/20 08:09:44;;;;;;;3.08;1.95;;;5.90;99.90;;;5.24;100.00;96758.03;5030970;28;20041;-60
2022/11/20 08:15:06;;;;;;;3.50;1.55;;;6.10;99.90;;;5.36;100.00;96762.06;5032324;28;20412;-60
2022/11/20 08:17:32;;;;;;;2.95;1.40;;;6.10;99.90;;;5.43;100.00;96765.41;5031306;28;20111;-59
2022/11/20 08:19:58;;;;;;;2.55;1.63;;;6.20;99.90;;;5.42;100.00;96756.69;5030700;28;20548;-60
2022/11/20 08:22:24;;;;;;;3.15;1.50;;;6.20;99.90;;;5.45;100.00;96759.22;5028562;28;20728;-59
2022/11/20 08:24:50;;;;;;;1.35;1.15;;;6.20;99.90;;;5.47;100.00;96764.41;5030651;28;20037;-60
2022/11/20 08:27:15;;;;;;;3.13;1.48;;;6.30;99.90;;;5.53;100.00;96767.72;5029125;28;20037;-59
2022/11/20 08:29:41;;;;;;;3.92;1.50;;;6.30;99.90;;;5.54;100.00;96777.31;5030126;28;20060;-60
2022/11/20 08:32:07;;;;;;;2.08;1.38;;;6.30;99.90;;;5.61;100.00;96769.28;5028721;28;20052;-59
2022/11/20 08:34:33;;;;;;;2.22;1.27;;;6.40;99.90;;;5.65;100.00;96757.81;5027125;28;20430;-60
2022/11/20 08:36:58;;;;;;;2.40;1.15;;;6.40;99.90;;;5.73;100.00;96761.09;5031783;28;20071;-60
2022/11/20 08:39:24;;;;;;;2.95;1.23;;;6.50;99.90;;;5.73;100.00;96755.84;5030956;28;20033;-59
2022/11/20 08:41:50;;;;;;;1.95;1.40;;;6.60;99.90;;;5.89;100.00;96762.38;5025155;28;20033;-60
2022/11/20 08:44:15;;;;;;;1.67;1.15;;;6.70;99.90;;;6.05;100.00;96764.59;5030755;28;20037;-59
2022/11/20 08:46:43;;;;;;;2.20;1.13;;;6.80;99.90;;;6.17;100.00;96772.06;5029325;28;20083;-59
2022/11/20 08:49:11;;;;;;;1.63;1.02;;;7.00;99.90;;;6.38;100.00;96770.56;5031287;28;20443;-60
2022/11/20 08:51:38;;;;;;;3.70;1.17;;;7.20;99.90;;;6.50;100.00;96769.34;5019189;28;20487;-59
2022/11/20 08:54:05;;;;;;;1.90;0.90;;;7.30;99.90;;;6.67;100.00;96766.19;5019589;28;20033;-59
2022/11/20 08:56:51;;;;;;;1.95;1.00;;;7.40;99.90;;;6.78;100.00;96760.59;5022381;28;20081;-59
2022/11/20 08:59:17;;;;;;;2.92;0.90;;;7.60;99.90;;;6.88;100.00;96773.38;5024021;28;20033;-60
2022/11/20 09:01:42;;;;;;;3.10;1.13;;;7.70;99.90;;;6.96;100.00;96774.88;5022161;28;20444;-59
2022/11/20 09:04:08;;;;;;;1.75;1.00;;;7.70;99.90;;;7.00;100.00;96784.34;5025667;28;20068;-60
2022/11/20 09:06:34;;;;;;;1.38;1.00;;;7.80;99.90;;;6.92;100.00;96779.38;5026975;28;20467;-60
2022/11/20 09:09:00;;;;;;;1.45;0.85;;;7.70;99.90;;;6.91;100.00;96775.06;5030530;28;20025;-59
2022/11/20 09:11:25;;;;;;;1.10;0.80;;;7.70;99.90;;;6.86;100.00;96780.44;5022007;28;20697;-59
2022/11/20 09:13:51;;;;;;;1.25;0.82;;;7.70;99.90;;;6.89;100.00;96782.09;5027460;28;20033;-60
2022/11/20 09:16:17;;;;;;;1.55;0.75;;;7.70;99.90;;;6.88;100.00;96793.50;5029216;28;20148;-60
2022/11/20 09:18:42;;;;;;;1.25;0.60;;;7.70;99.90;;;6.84;100.00;96795.34;5021688;28;20041;-60
2022/11/20 09:21:13;;;;;;;1.85;0.82;;;7.70;99.90;;;6.85;100.00;96791.81;5027817;28;20121;-59
2022/11/20 09:23:39;;;;;;;0.95;0.60;;;7.60;99.90;;;6.86;100.00;96795.31;5025757;28;20032;-60
2022/11/20 09:26:09;;;;;;;0.60;0.57;;;7.60;99.90;;;6.92;100.00;96795.09;5020016;28;20052;-60
2022/11/20 09:28:35;;;;;;;2.08;0.85;;;7.70;99.90;;;6.95;100.00;96796.78;5019974;28;21817;-60
2022/11/20 09:31:05;;;;;;;0.70;0.50;;;7.70;99.90;;;6.85;100.00;96798.81;5022430;28;20037;-59
2022/11/20 09:33:31;;;;;;;0.63;0.60;;;7.70;99.90;;;6.87;100.00;96805.75;5026930;28;20087;-60
2022/11/20 09:35:56;;;;;;;1.10;0.70;;;7.70;99.90;;;6.82;100.00;96801.53;5026729;28;20033;-60
2022/11/20 09:38:22;;;;;;;1.27;0.63;;;7.60;99.90;;;6.86;100.00;96808.41;5029835;28;20036;-59
2022/11/20 09:40:58;;;;;;;0.90;0.60;;;7.60;99.90;;;6.78;100.00;96813.88;5029606;28;20469;-59
2022/11/20 09:43:58;;;;;;;3.95;0.60;;;7.60;99.90;;;6.80;100.00;96809.47;5026135;28;20021;-59
2022/11/20 09:46:36;;;;;;;2.00;0.57;;;7.60;99.90;;;6.59;100.00;96791.78;5062548;23;20104;-40
2022/11/20 09:49:48;;;;;;;0.70;0.50;;;7.50;99.90;;;6.74;100.00;96808.78;5067649;28;20176;-40
2022/11/20 09:52:55;;;;;;;0.87;0.60;;;7.50;99.90;;;6.75;100.00;96818.34;5064436;28;20040;-40
2022/11/20 09:55:21;;;;;;;1.15;0.45;;;7.50;99.90;;;6.67;100.00;96819.44;5064340;28;20036;-40
2022/11/20 09:57:51;;;;;;;2.00;1.10;;;7.50;99.90;;;6.62;100.00;96815.25;5050917;28;20112;-40
2022/11/20 10:00:21;;;;;;;0.70;0.50;;;7.50;99.90;;;6.62;100.00;96816.13;5059953;28;20035;-40
2022/11/20 10:02:58;;;;;;;1.92;0.52;;;7.40;99.90;;;6.52;100.00;96819.06;5067614;28;20029;-40
2022/11/20 10:05:40;;;;;;;0.50;0.50;;;7.40;99.90;;;6.41;100.00;96812.38;5044827;28;20167;-40
2022/11/20 10:08:18;;;;;;;0.77;0.55;;;7.30;99.90;;;6.25;100.00;96795.41;5064314;28;20033;-40
2022/11/20 10:11:13;;;;;;;0.80;0.35;;;7.20;99.90;;;6.35;100.00;96823.03;5048100;28;20032;-40
2022/11/20 10:14:16;;;;;;;1.20;0.50;;;7.20;99.90;;;6.30;100.00;96817.94;5045166;28;20145;-40
2022/11/20 10:17:17;;;;;;;0.68;0.43;;;7.10;99.90;;;6.23;100.00;96819.03;5049883;28;20310;-40
2022/11/20 10:20:37;;;;;;;0.40;0.30;;;7.00;99.90;;;6.19;100.00;96819.16;5027076;28;20062;-40
2022/11/20 10:23:34;;;;;;;0.80;0.50;;;7.00;99.90;;;6.27;100.00;96820.66;5023222;28;20044;-40
2022/11/20 10:26:12;;;;;;;0.40;0.40;;;7.00;99.90;;;6.24;100.00;96839.06;5045268;28;20029;-40
2022/11/20 10:29:07;;;;;;;1.20;0.52;;;7.00;99.90;;;6.20;100.00;96832.19;5048399;28;20085;-40
2022/11/20 10:31:37;;;;;;;1.20;0.80;;;7.00;99.90;;;6.02;100.00;96827.50;5042679;28;20020;-40
2022/11/20 10:34:17;;;;;;;0.75;0.60;;;6.90;99.90;;;5.86;100.00;96830.50;5048606;28;20103;-40
2022/11/20 10:36:54;;;;;;;1.33;0.60;;;6.80;99.90;;;5.81;100.00;96834.13;5034067;28;20039;-40
2022/11/20 10:39:36;;;;;;;1.38;0.70;;;6.60;99.90;;;5.84;100.00;96831.44;5052246;28;20090;-40
2022/11/20 10:42:02;;;;;;;0.55;0.30;;;6.60;99.90;;;5.69;100.00;96817.03;5047556;28;20024;-40
2022/11/20 10:47:18;;;;;;;1.00;0.70;;;6.60;99.90;;;5.78;100.00;96827.25;5053847;28;20515;-40